Time;durP1;ratioP1;P1;durP2;ratioP2;P2;SDS_P1;SDS_P2;PMS_P1;PMS_P2;Temp;Humidity;BMP_temperature;BMP_pressure;BME280_temperature;BME280_humidity;BME280_pressure;Samples;Min_cycle;Max_cycle;Signal;HPM_P1;HPM_P2
2022/03/21 00:00:57;;;;;;;22.65;17.33;;;15.80;58.10;;;;;;4000757;29;20052;-65
2022/03/21 00:03:24;;;;;;;24.17;17.38;;;15.80;58.10;;;;;;4000961;29;20663;-65
2022/03/21 00:05:46;;;;;;;23.80;15.95;;;15.80;58.20;;;;;;4001073;29;20424;-65
2022/03/21 00:08:09;;;;;;;23.25;15.77;;;15.80;58.40;;;;;;4002955;29;20106;-64
2022/03/21 00:10:33;;;;;;;22.83;16.20;;;15.80;58.50;;;;;;4003875;29;20134;-65
2022/03/21 00:12:55;;;;;;;19.90;15.60;;;15.80;58.50;;;;;;4001609;29;20069;-64
2022/03/21 00:15:17;;;;;;;22.38;16.63;;;15.80;58.50;;;;;;4002899;29;20839;-65
2022/03/21 00:17:40;;;;;;;21.10;15.65;;;15.80;58.50;;;;;;4003679;29;20106;-64
2022/03/21 00:20:06;;;;;;;24.77;15.95;;;15.70;58.40;;;;;;4003652;29;20064;-65
2022/03/21 00:22:28;;;;;;;23.92;15.20;;;15.80;58.40;;;;;;4003957;29;20060;-65
2022/03/21 00:24:50;;;;;;;22.08;15.32;;;15.70;58.20;;;;;;4003758;29;20060;-65
2022/03/21 00:27:12;;;;;;;21.63;16.42;;;15.70;58.40;;;;;;4003844;29;20831;-62
2022/03/21 00:29:43;;;;;;;22.23;15.15;;;15.70;58.60;;;;;;3988504;29;20145;-65
2022/03/21 00:32:06;;;;;;;24.25;15.07;;;15.70;58.30;;;;;;3989548;29;21452;-65
2022/03/21 00:34:29;;;;;;;19.63;13.95;;;15.70;59.00;;;;;;3989117;29;20054;-65
2022/03/21 00:36:52;;;;;;;24.92;15.52;;;15.70;58.20;;;;;;4003303;29;20545;-65
2022/03/21 00:39:14;;;;;;;22.15;15.48;;;15.70;58.40;;;;;;4003488;29;20057;-65
2022/03/21 00:41:36;;;;;;;18.80;14.77;;;15.60;58.10;;;;;;4003681;29;20122;-65
2022/03/21 00:43:59;;;;;;;24.20;16.25;;;15.60;58.90;;;;;;3989315;29;20055;-65
2022/03/21 00:46:22;;;;;;;19.58;14.18;;;15.60;58.00;;;;;;4003244;29;20417;-65
2022/03/21 00:48:44;;;;;;;22.48;15.93;;;15.60;58.40;;;;;;3988407;29;20378;-65
2022/03/21 00:51:06;;;;;;;23.23;14.65;;;15.60;58.60;;;;;;4003259;29;20064;-65
2022/03/21 00:53:29;;;;;;;18.83;15.13;;;15.60;58.70;;;;;;4003463;29;20054;-65
2022/03/21 00:55:52;;;;;;;18.70;13.95;;;15.50;58.70;;;;;;4002980;29;20046;-65
2022/03/21 00:58:15;;;;;;;22.05;15.63;;;15.50;58.60;;;;;;4003535;29;20056;-65
2022/03/21 01:00:37;;;;;;;24.08;15.20;;;15.50;58.80;;;;;;3988279;29;20073;-65
2022/03/21 01:03:01;;;;;;;22.48;14.63;;;15.50;59.00;;;;;;3993687;29;20481;-65
2022/03/21 01:05:24;;;;;;;24.55;15.02;;;15.50;59.00;;;;;;4003456;29;20496;-65
2022/03/21 01:07:46;;;;;;;21.40;15.82;;;15.50;59.20;;;;;;4002940;29;20064;-65
2022/03/21 01:10:13;;;;;;;21.40;15.07;;;15.50;59.10;;;;;;4002883;29;20111;-65
2022/03/21 01:12:36;;;;;;;22.52;15.27;;;15.50;59.40;;;;;;4002875;29;20050;-65
2022/03/21 01:15:00;;;;;;;19.83;15.00;;;15.50;59.50;;;;;;4003460;29;20061;-65
2022/03/21 01:17:23;;;;;;;22.77;16.00;;;15.50;59.70;;;;;;4003219;29;20083;-65
2022/03/21 01:19:44;;;;;;;21.67;16.02;;;15.50;59.70;;;;;;4002500;29;20438;-65
2022/03/21 01:22:06;;;;;;;22.30;15.93;;;15.50;59.80;;;;;;4003091;29;20402;-65
2022/03/21 01:24:29;;;;;;;23.02;17.05;;;15.50;60.00;;;;;;4002549;29;20068;-65
2022/03/21 01:26:52;;;;;;;25.15;17.33;;;15.50;59.90;;;;;;4014473;29;20609;-65
2022/03/21 01:29:15;;;;;;;25.27;16.83;;;15.50;59.90;;;;;;4002759;29;20420;-66
2022/03/21 01:31:37;;;;;;;27.10;17.50;;;15.40;59.80;;;;;;3988860;29;20141;-65
2022/03/21 01:33:59;;;;;;;21.00;15.90;;;15.50;59.90;;;;;;4002424;29;20115;-65
2022/03/21 01:36:22;;;;;;;25.52;16.83;;;15.50;60.00;;;;;;3988893;29;20056;-65
2022/03/21 01:38:44;;;;;;;24.88;18.45;;;15.50;60.20;;;;;;4002659;29;20061;-65
2022/03/21 01:41:06;;;;;;;27.30;18.88;;;15.50;60.30;;;;;;4002779;29;20119;-65
2022/03/21 01:43:29;;;;;;;24.55;17.77;;;15.40;60.30;;;;;;4002175;29;20148;-64
2022/03/21 01:45:51;;;;;;;24.75;18.85;;;15.50;60.50;;;;;;4002812;29;20053;-65
2022/03/21 01:48:13;;;;;;;25.48;18.25;;;15.50;60.50;;;;;;4002562;29;20057;-65
2022/03/21 01:50:37;;;;;;;28.40;18.52;;;15.50;60.60;;;;;;4002612;29;20110;-64
2022/03/21 01:55:46;;;;;;;30.75;20.00;;;15.50;60.80;;;;;;4002534;29;20107;-66
2022/03/21 01:58:08;;;;;;;23.75;18.02;;;15.50;60.80;;;;;;4001989;29;20504;-65
2022/03/21 02:00:31;;;;;;;26.38;18.95;;;15.40;60.70;;;;;;4002180;29;20065;-66
2022/03/21 02:02:53;;;;;;;30.85;19.95;;;15.50;60.80;;;;;;4002166;29;20145;-66
2022/03/21 02:05:15;;;;;;;28.08;19.67;;;15.40;60.70;;;;;;4002053;29;20068;-66
2022/03/21 02:07:38;;;;;;;26.45;18.60;;;15.40;60.70;;;;;;4001852;29;20050;-66
2022/03/21 02:10:02;;;;;;;26.05;18.48;;;15.40;60.80;;;;;;3994870;29;21853;-66
2022/03/21 02:12:24;;;;;;;30.67;18.63;;;15.40;60.70;;;;;;4002418;29;20543;-66
2022/03/21 02:14:47;;;;;;;27.00;19.05;;;15.40;60.70;;;;;;4001862;29;20042;-66
2022/03/21 02:17:10;;;;;;;27.58;20.02;;;15.40;60.70;;;;;;4002204;29;20110;-66
2022/03/21 02:19:37;;;;;;;30.30;20.25;;;15.40;60.70;;;;;;4001124;29;20501;-66
2022/03/21 02:22:16;;;;;;;26.17;19.65;;;15.40;60.80;;;;;;3998221;29;21981;-65
2022/03/21 02:24:49;;;;;;;26.35;19.38;;;15.40;60.70;;;;;;4001547;29;20504;-65
2022/03/21 02:27:13;;;;;;;26.50;19.55;;;15.40;60.80;;;;;;4001733;29;20481;-66
2022/03/21 02:29:38;;;;;;;29.15;20.67;;;15.40;61.90;;;;;;3987070;29;20058;-66
2022/03/21 02:32:00;;;;;;;30.02;19.85;;;15.40;61.10;;;;;;4001823;29;20057;-66
2022/03/21 02:34:25;;;;;;;30.70;19.90;;;15.40;61.20;;;;;;4002115;29;20381;-65
2022/03/21 02:36:47;;;;;;;29.40;20.27;;;15.40;61.20;;;;;;3987901;29;20050;-65
2022/03/21 02:39:10;;;;;;;28.15;19.38;;;15.40;61.10;;;;;;4001264;29;20393;-65
2022/03/21 02:41:31;;;;;;;30.52;19.83;;;15.40;61.10;;;;;;4001644;29;20142;-64
2022/03/21 02:43:57;;;;;;;27.15;20.50;;;15.40;60.80;;;;;;4001976;29;20057;-65
2022/03/21 02:46:19;;;;;;;29.70;20.33;;;15.40;60.90;;;;;;4001519;29;20085;-65
2022/03/21 02:48:41;;;;;;;26.50;19.60;;;15.40;60.70;;;;;;4001728;29;20065;-65
2022/03/21 02:51:04;;;;;;;26.58;20.08;;;15.40;61.00;;;;;;4001617;29;20477;-65
2022/03/21 02:53:27;;;;;;;27.45;20.23;;;15.30;60.90;;;;;;4001395;29;20054;-65
2022/03/21 02:55:54;;;;;;;27.90;19.10;;;15.30;61.00;;;;;;4001206;29;20057;-65
2022/03/21 02:58:16;;;;;;;25.52;19.25;;;15.30;61.20;;;;;;4001042;29;20053;-66
2022/03/21 03:00:39;;;;;;;25.67;18.65;;;15.30;61.40;;;;;;4001690;29;20552;-65
2022/03/21 03:03:02;;;;;;;26.10;19.10;;;15.30;61.50;;;;;;3987594;29;20085;-66
2022/03/21 03:05:24;;;;;;;26.13;17.38;;;15.30;61.50;;;;;;3998685;29;20053;-65
2022/03/21 03:07:46;;;;;;;24.33;17.27;;;15.30;61.40;;;;;;4001259;29;20509;-65
2022/03/21 03:10:09;;;;;;;23.23;17.75;;;15.30;61.60;;;;;;4001120;29;20058;-65
2022/03/21 03:12:31;;;;;;;26.35;17.42;;;15.30;61.60;;;;;;4001571;29;20050;-65
2022/03/21 03:14:53;;;;;;;24.75;17.02;;;15.30;61.70;;;;;;4000954;29;20064;-65
2022/03/21 03:17:17;;;;;;;25.77;18.05;;;15.30;61.70;;;;;;4001488;29;20072;-65
2022/03/21 03:19:40;;;;;;;26.30;16.98;;;15.30;61.60;;;;;;4001578;29;20110;-65
2022/03/21 03:22:02;;;;;;;22.77;16.35;;;15.30;61.90;;;;;;3986240;29;20050;-65
2022/03/21 03:24:27;;;;;;;20.58;15.93;;;15.40;61.90;;;;;;3985621;29;20050;-65
2022/03/21 03:26:50;;;;;;;22.50;16.25;;;15.50;61.80;;;;;;4000915;29;20057;-68
2022/03/21 03:29:13;;;;;;;26.83;17.52;;;15.50;61.60;;;;;;4000532;29;20478;-67
2022/03/21 03:31:36;;;;;;;22.65;16.52;;;15.60;61.60;;;;;;4000773;29;20468;-67
2022/03/21 03:34:00;;;;;;;27.02;16.63;;;15.60;62.40;;;;;;4000829;29;20054;-65
2022/03/21 03:36:22;;;;;;;23.95;17.77;;;15.60;61.30;;;;;;4000973;29;20053;-67
2022/03/21 03:38:45;;;;;;;23.55;16.80;;;15.70;61.20;;;;;;3985520;29;20130;-66
2022/03/21 03:41:07;;;;;;;26.73;17.35;;;15.70;61.10;;;;;;3984444;29;20054;-66
2022/03/21 03:43:30;;;;;;;26.60;17.33;;;15.70;61.10;;;;;;3975618;29;20204;-66
2022/03/21 03:45:52;;;;;;;22.00;16.95;;;15.70;60.90;;;;;;4004184;29;21043;-67
2022/03/21 03:48:14;;;;;;;23.33;16.60;;;15.60;61.00;;;;;;4004274;29;20062;-67
2022/03/21 03:50:38;;;;;;;21.55;16.55;;;15.70;61.10;;;;;;4004415;29;20498;-66
2022/03/21 03:53:00;;;;;;;23.15;17.02;;;15.70;61.10;;;;;;4003668;29;20104;-66
2022/03/21 03:55:22;;;;;;;24.73;15.85;;;15.70;61.10;;;;;;4004092;29;20058;-66
2022/03/21 03:57:44;;;;;;;23.70;17.55;;;15.70;61.10;;;;;;4004094;29;20086;-67
2022/03/21 04:00:08;;;;;;;27.45;17.88;;;15.70;61.10;;;;;;4004060;29;20446;-67
2022/03/21 04:05:14;;;;;;;30.20;17.42;;;15.70;60.90;;;;;;4003799;29;20511;-66
2022/03/21 04:07:37;;;;;;;24.73;17.42;;;15.70;60.90;;;;;;4003706;29;20053;-66
2022/03/21 04:09:59;;;;;;;24.38;17.30;;;15.70;60.90;;;;;;4004211;29;20117;-67
2022/03/21 04:12:21;;;;;;;25.02;16.13;;;15.70;60.90;;;;;;4003672;29;20417;-67
2022/03/21 04:14:47;;;;;;;24.08;16.25;;;15.60;60.90;;;;;;4003365;29;20401;-67
2022/03/21 04:17:10;;;;;;;25.65;16.48;;;15.60;60.90;;;;;;3989158;29;20896;-67
2022/03/21 04:19:32;;;;;;;24.02;16.40;;;15.60;60.90;;;;;;4003722;29;20137;-67
2022/03/21 04:21:54;;;;;;;21.67;15.93;;;15.60;60.60;;;;;;4003724;29;20081;-68
2022/03/21 04:24:18;;;;;;;20.33;15.27;;;15.60;60.70;;;;;;4003242;29;20066;-68
2022/03/21 04:26:40;;;;;;;20.75;15.30;;;15.60;60.70;;;;;;4003488;29;20057;-69
2022/03/21 04:29:04;;;;;;;22.83;15.43;;;15.50;60.80;;;;;;3989398;29;20061;-69
2022/03/21 04:31:27;;;;;;;19.55;15.00;;;15.50;60.80;;;;;;4003549;29;20085;-66
2022/03/21 04:33:49;;;;;;;18.50;14.50;;;15.50;61.00;;;;;;3974481;29;20381;-66
2022/03/21 04:36:11;;;;;;;23.02;15.90;;;15.40;61.10;;;;;;3988257;29;20441;-66
2022/03/21 04:38:33;;;;;;;21.13;14.48;;;15.40;61.00;;;;;;4003290;29;20129;-66
2022/03/21 04:40:57;;;;;;;22.50;14.25;;;15.40;61.30;;;;;;4003472;29;20476;-66
2022/03/21 04:43:20;;;;;;;25.92;15.23;;;15.40;61.80;;;;;;3974515;29;20062;-66
2022/03/21 04:45:43;;;;;;;18.88;14.32;;;15.50;62.10;;;;;;3988241;29;20497;-66
2022/03/21 04:48:05;;;;;;;21.80;15.02;;;15.60;61.90;;;;;;3988281;29;20174;-66
2022/03/21 04:50:27;;;;;;;19.08;14.88;;;15.70;61.60;;;;;;3988188;29;20054;-66
2022/03/21 04:52:49;;;;;;;20.75;14.73;;;15.70;61.20;;;;;;4000376;29;20046;-66
2022/03/21 04:55:12;;;;;;;19.27;14.05;;;15.70;61.10;;;;;;4002964;29;20056;-66
2022/03/21 04:57:38;;;;;;;20.92;14.77;;;15.80;61.10;;;;;;4003268;29;20469;-66
2022/03/21 05:00:00;;;;;;;20.13;14.10;;;15.80;61.00;;;;;;4003397;29;20058;-66
2022/03/21 05:02:22;;;;;;;19.60;14.55;;;15.90;61.00;;;;;;4003036;29;20141;-66
2022/03/21 05:04:45;;;;;;;20.55;13.52;;;15.90;60.80;;;;;;4002870;29;20815;-66
2022/03/21 05:07:07;;;;;;;27.67;13.63;;;15.90;60.60;;;;;;3988049;29;20058;-66
2022/03/21 05:09:29;;;;;;;17.90;13.10;;;15.90;60.50;;;;;;3988055;29;20145;-66
2022/03/21 05:11:52;;;;;;;23.42;14.35;;;15.90;60.50;;;;;;3979878;29;20088;-66
2022/03/21 05:14:18;;;;;;;19.42;13.88;;;15.90;60.40;;;;;;4002728;29;20065;-66
2022/03/21 05:16:40;;;;;;;21.00;14.40;;;16.00;60.50;;;;;;3987291;29;20057;-66
2022/03/21 05:19:02;;;;;;;19.60;14.88;;;16.00;60.60;;;;;;3998167;29;20058;-66
2022/03/21 05:21:25;;;;;;;21.20;14.45;;;16.00;60.50;;;;;;4002647;29;20053;-65
2022/03/21 05:31:47;;;;;;;18.42;13.75;;;15.90;60.70;;;;;;4001694;29;20456;-66
2022/03/21 05:36:48;;;;;;;19.70;13.82;;;15.90;60.60;;;;;;4003090;29;20132;-66
2022/03/21 05:39:10;;;;;;;22.27;14.00;;;15.90;60.70;;;;;;4002458;29;20468;-66
2022/03/21 05:41:32;;;;;;;18.00;13.98;;;15.90;60.80;;;;;;3988573;29;20493;-66
2022/03/21 05:43:54;;;;;;;23.65;14.02;;;15.80;60.80;;;;;;4002606;29;20061;-66
2022/03/21 05:46:16;;;;;;;24.20;15.02;;;15.80;61.00;;;;;;4001903;29;20078;-66
2022/03/21 05:48:51;;;;;;;24.17;15.48;;;15.90;61.10;;;;;;4002756;29;20061;-66
2022/03/21 05:51:15;;;;;;;21.95;13.95;;;15.90;60.80;;;;;;4002162;29;20179;-66
2022/03/21 05:53:37;;;;;;;21.67;14.05;;;16.00;60.60;;;;;;4002647;29;20062;-66
2022/03/21 05:56:04;;;;;;;25.48;14.45;;;16.00;60.40;;;;;;4002477;29;20061;-65
2022/03/21 05:58:26;;;;;;;20.27;14.10;;;16.10;60.20;;;;;;4002105;29;20130;-66
2022/03/21 06:00:48;;;;;;;20.95;15.20;;;16.10;60.10;;;;;;3988909;29;20505;-67
2022/03/21 06:03:10;;;;;;;19.73;14.45;;;16.00;59.90;;;;;;4002348;29;20049;-67
2022/03/21 06:05:34;;;;;;;19.40;14.00;;;16.00;59.90;;;;;;4001146;29;20053;-66
2022/03/21 06:07:57;;;;;;;20.80;15.05;;;16.00;60.80;;;;;;4001481;29;20140;-66
2022/03/21 06:10:19;;;;;;;21.02;14.45;;;16.00;60.10;;;;;;4002142;29;20053;-66
2022/03/21 06:12:41;;;;;;;19.80;14.50;;;15.90;60.20;;;;;;3990486;29;20135;-66
2022/03/21 06:15:04;;;;;;;21.80;14.85;;;15.90;60.40;;;;;;4002145;29;20561;-66
2022/03/21 06:17:27;;;;;;;20.50;14.20;;;15.90;60.40;;;;;;4001667;29;20098;-66
2022/03/21 06:19:50;;;;;;;18.35;12.80;;;15.90;60.50;;;;;;4001976;29;20469;-66
2022/03/21 06:22:13;;;;;;;21.63;13.73;;;15.80;61.50;;;;;;3987201;29;20058;-66
2022/03/21 06:24:35;;;;;;;20.17;13.25;;;15.80;60.80;;;;;;3987116;29;20054;-66
2022/03/21 06:26:57;;;;;;;18.75;13.50;;;15.90;60.80;;;;;;3986703;29;20126;-66
2022/03/21 06:29:19;;;;;;;19.17;13.82;;;15.80;60.90;;;;;;3990324;29;20054;-66
2022/03/21 06:31:41;;;;;;;19.10;14.32;;;15.90;60.70;;;;;;4001591;29;20469;-65
2022/03/21 06:34:04;;;;;;;18.83;13.70;;;15.90;60.90;;;;;;4001428;29;20050;-65
2022/03/21 06:36:26;;;;;;;17.52;13.57;;;15.90;60.60;;;;;;4001905;29;20099;-65
2022/03/21 06:38:49;;;;;;;22.38;14.60;;;16.00;60.80;;;;;;4001436;29;20129;-64
2022/03/21 06:41:11;;;;;;;20.58;14.50;;;16.00;60.30;;;;;;4001830;29;20052;-65
2022/03/21 06:43:34;;;;;;;20.25;13.98;;;16.00;60.20;;;;;;4001852;29;20052;-65
2022/03/21 06:45:58;;;;;;;22.08;14.25;;;16.10;60.00;;;;;;4003913;29;20061;-65
2022/03/21 06:48:21;;;;;;;19.58;14.77;;;16.10;59.90;;;;;;4001661;29;20054;-66
2022/03/21 06:50:46;;;;;;;20.90;14.20;;;16.10;59.70;;;;;;3972585;29;20117;-65
2022/03/21 06:53:07;;;;;;;21.00;15.55;;;16.00;59.60;;;;;;3986577;29;20490;-65
2022/03/21 06:55:31;;;;;;;21.80;14.43;;;16.00;59.60;;;;;;3986409;29;20084;-66
2022/03/21 06:57:53;;;;;;;20.05;14.70;;;16.00;59.80;;;;;;4001479;29;20069;-65
2022/03/21 07:00:16;;;;;;;20.58;15.25;;;15.90;60.00;;;;;;3993560;29;20061;-65
2022/03/21 07:02:39;;;;;;;20.42;14.80;;;15.90;59.90;;;;;;3993733;29;20394;-66
2022/03/21 07:05:01;;;;;;;21.98;14.93;;;15.90;60.00;;;;;;4001012;29;20058;-65
2022/03/21 07:07:23;;;;;;;22.55;15.13;;;15.90;60.10;;;;;;4001185;29;20100;-64
2022/03/21 07:09:45;;;;;;;22.23;15.05;;;15.80;60.10;;;;;;4001068;29;20402;-65
2022/03/21 07:12:09;;;;;;;20.10;14.00;;;15.80;60.30;;;;;;4001196;29;20490;-66
2022/03/21 07:14:32;;;;;;;22.20;14.75;;;15.70;60.30;;;;;;4000203;29;20053;-65
2022/03/21 07:16:54;;;;;;;22.38;14.00;;;15.70;60.50;;;;;;4000213;29;20054;-65
2022/03/21 07:19:19;;;;;;;24.02;15.32;;;15.70;61.50;;;;;;4000553;29;20409;-65
2022/03/21 07:21:41;;;;;;;24.08;14.93;;;15.60;60.90;;;;;;3992056;29;20607;-65
2022/03/21 07:24:04;;;;;;;21.77;14.98;;;15.70;60.90;;;;;;3982144;29;20061;-65
2022/03/21 07:26:26;;;;;;;22.60;15.20;;;15.70;60.90;;;;;;4000849;29;20053;-64
2022/03/21 07:28:51;;;;;;;20.08;15.45;;;15.70;60.60;;;;;;3999305;29;20841;-64
2022/03/21 07:31:30;;;;;;;21.63;15.45;;;15.70;60.60;;;;;;3999828;29;20081;-64
2022/03/21 07:33:53;;;;;;;22.25;15.82;;;15.70;60.60;;;;;;4000635;29;20045;-64
2022/03/21 07:36:15;;;;;;;25.02;16.17;;;15.70;60.90;;;;;;3988073;29;20058;-64
2022/03/21 07:38:38;;;;;;;22.58;15.50;;;15.70;60.90;;;;;;4000900;29;20579;-65
2022/03/21 07:41:00;;;;;;;23.98;16.70;;;15.60;61.00;;;;;;4000361;29;20446;-65
2022/03/21 07:43:23;;;;;;;21.38;16.92;;;15.60;61.30;;;;;;3986817;29;20050;-65
2022/03/21 07:48:27;;;;;;;27.35;16.55;;;15.60;61.50;;;;;;3998736;29;20042;-64
2022/03/21 07:50:49;;;;;;;22.85;15.85;;;15.60;61.70;;;;;;4000109;29;20073;-65
2022/03/21 07:53:11;;;;;;;22.75;15.50;;;15.60;61.70;;;;;;3993220;29;20057;-64
2022/03/21 07:55:33;;;;;;;26.00;15.13;;;15.60;61.70;;;;;;4000958;29;20106;-64
2022/03/21 07:57:56;;;;;;;23.02;16.40;;;15.60;61.70;;;;;;4000916;29;20382;-63
2022/03/21 08:00:18;;;;;;;20.40;15.20;;;15.60;61.60;;;;;;4000899;29;20062;-66
2022/03/21 08:02:43;;;;;;;23.35;14.75;;;15.60;61.50;;;;;;3999992;29;20085;-64
2022/03/21 08:05:07;;;;;;;24.67;15.35;;;15.70;61.50;;;;;;4000788;29;20400;-64
2022/03/21 08:07:29;;;;;;;21.55;14.88;;;15.70;61.40;;;;;;4000600;29;20122;-64
2022/03/21 08:09:52;;;;;;;22.58;16.55;;;15.70;61.30;;;;;;3979019;29;20520;-64
2022/03/21 08:12:14;;;;;;;21.52;15.60;;;15.70;62.30;;;;;;4004244;29;20069;-64
2022/03/21 08:14:36;;;;;;;24.77;15.25;;;15.70;61.20;;;;;;3994168;29;20049;-64
2022/03/21 08:16:59;;;;;;;24.65;16.48;;;15.70;62.10;;;;;;4000206;29;20102;-65
2022/03/21 08:19:24;;;;;;;22.23;14.35;;;15.80;61.10;;;;;;3999792;29;20112;-65
2022/03/21 08:21:46;;;;;;;24.20;14.93;;;15.80;61.00;;;;;;4000083;29;20081;-66
2022/03/21 08:24:08;;;;;;;22.83;14.88;;;15.80;61.00;;;;;;4000097;29;20140;-65
2022/03/21 08:26:30;;;;;;;21.30;14.75;;;15.80;62.00;;;;;;3987382;29;20074;-66
2022/03/21 08:28:52;;;;;;;22.00;14.55;;;15.80;61.00;;;;;;4000889;29;20060;-65
2022/03/21 08:31:15;;;;;;;21.88;14.52;;;15.90;61.00;;;;;;4005814;29;20054;-66
2022/03/21 08:33:37;;;;;;;22.08;15.40;;;15.90;60.70;;;;;;4002319;29;20069;-65
2022/03/21 08:36:01;;;;;;;23.65;16.33;;;15.90;61.60;;;;;;4001993;29;20504;-65
2022/03/21 08:38:23;;;;;;;20.77;13.82;;;15.90;60.60;;;;;;4002465;29;20054;-65
2022/03/21 08:40:45;;;;;;;21.75;14.55;;;15.90;60.40;;;;;;3973517;29;20058;-65
2022/03/21 08:43:08;;;;;;;25.23;15.98;;;15.90;60.40;;;;;;3991659;29;20058;-65
2022/03/21 08:45:30;;;;;;;21.35;15.38;;;15.90;60.20;;;;;;4004019;29;20059;-65
2022/03/21 08:47:53;;;;;;;24.55;15.85;;;15.90;59.80;;;;;;4003339;29;20057;-65
2022/03/21 08:50:21;;;;;;;27.48;16.65;;;16.00;59.70;;;;;;4003134;29;20057;-65
2022/03/21 08:52:46;;;;;;;25.25;15.38;;;16.00;59.70;;;;;;3979866;29;20054;-65
2022/03/21 08:55:09;;;;;;;24.48;16.02;;;16.00;59.80;;;;;;3989422;29;20046;-64
2022/03/21 08:57:32;;;;;;;24.00;16.33;;;16.00;59.90;;;;;;4003548;29;20137;-65
2022/03/21 08:59:54;;;;;;;28.95;15.63;;;16.00;59.70;;;;;;4003292;29;20462;-64
2022/03/21 09:02:17;;;;;;;26.48;17.13;;;16.00;59.60;;;;;;4003021;29;20581;-66
2022/03/21 09:04:40;;;;;;;26.27;17.58;;;16.00;59.80;;;;;;4000720;29;20409;-66
2022/03/21 09:07:02;;;;;;;23.92;14.98;;;16.00;59.50;;;;;;3989241;29;20057;-65
2022/03/21 09:09:25;;;;;;;24.92;15.75;;;16.00;59.40;;;;;;4003133;29;20126;-66
2022/03/21 09:11:49;;;;;;;24.88;16.67;;;16.00;59.60;;;;;;3987611;29;20138;-64
2022/03/21 09:14:12;;;;;;;24.35;16.88;;;16.00;59.80;;;;;;3987599;29;20418;-64
2022/03/21 09:16:35;;;;;;;22.25;15.63;;;16.00;60.50;;;;;;4003287;29;20095;-66
2022/03/21 09:18:57;;;;;;;30.45;18.38;;;16.10;59.60;;;;;;3988467;29;20055;-65
2022/03/21 09:21:20;;;;;;;27.60;17.48;;;16.10;59.70;;;;;;3987899;29;20054;-65
2022/03/21 09:23:42;;;;;;;29.58;17.40;;;16.10;59.50;;;;;;3987563;29;20398;-65
2022/03/21 09:26:08;;;;;;;25.02;16.55;;;16.10;59.40;;;;;;3987791;29;20070;-65
2022/03/21 09:28:31;;;;;;;26.42;17.65;;;16.10;59.30;;;;;;3973915;29;20192;-64
2022/03/21 09:30:53;;;;;;;23.23;16.17;;;16.10;59.20;;;;;;3987504;29;20814;-65
2022/03/21 09:33:16;;;;;;;27.98;17.27;;;16.20;59.10;;;;;;4000126;29;20061;-65
2022/03/21 09:35:38;;;;;;;25.05;16.77;;;16.20;59.10;;;;;;4001987;29;20061;-64
2022/03/21 09:38:03;;;;;;;25.13;16.20;;;16.20;59.70;;;;;;4002529;29;20057;-64
2022/03/21 09:40:26;;;;;;;28.55;18.65;;;16.20;58.90;;;;;;4000346;29;20056;-65
2022/03/21 09:42:50;;;;;;;25.27;17.08;;;16.20;58.90;;;;;;4001903;29;20082;-65
2022/03/21 09:45:13;;;;;;;24.58;16.65;;;16.30;58.90;;;;;;4001207;29;20501;-64
2022/03/21 09:50:15;;;;;;;23.38;16.77;;;16.30;58.90;;;;;;4001807;29;20049;-66
2022/03/21 09:52:38;;;;;;;26.35;14.93;;;16.30;58.50;;;;;;3988016;29;20061;-66
2022/03/21 09:55:02;;;;;;;25.10;16.73;;;16.30;59.80;;;;;;4002028;29;20050;-67
2022/03/21 09:57:26;;;;;;;30.75;17.35;;;16.30;59.30;;;;;;3996304;29;20060;-65
2022/03/21 09:59:50;;;;;;;26.90;14.48;;;16.40;59.40;;;;;;4001794;29;20081;-65
2022/03/21 10:02:18;;;;;;;24.35;16.02;;;16.40;59.40;;;;;;4002362;29;20056;-66
2022/03/21 10:04:41;;;;;;;27.55;17.45;;;16.40;59.00;;;;;;4001696;29;20136;-66
2022/03/21 10:07:03;;;;;;;27.27;16.13;;;16.50;59.60;;;;;;4002077;29;20053;-66
2022/03/21 10:09:25;;;;;;;27.85;17.80;;;16.50;58.80;;;;;;4002134;29;20557;-66
2022/03/21 10:11:52;;;;;;;27.70;17.08;;;16.50;58.70;;;;;;4002047;29;20141;-66
2022/03/21 10:14:21;;;;;;;25.33;18.30;;;16.60;58.50;;;;;;3987914;29;20063;-65
2022/03/21 10:16:52;;;;;;;27.45;18.75;;;16.50;58.30;;;;;;4001715;29;20073;-66
2022/03/21 10:19:14;;;;;;;30.50;17.58;;;16.60;57.60;;;;;;3995160;29;20676;-65
2022/03/21 10:21:36;;;;;;;27.23;17.92;;;16.60;57.80;;;;;;3987199;29;20103;-64
2022/03/21 10:24:02;;;;;;;27.83;15.52;;;16.60;58.00;;;;;;3987302;29;20050;-64
2022/03/21 10:26:26;;;;;;;30.23;17.50;;;16.60;58.10;;;;;;3987521;29;20069;-63
2022/03/21 10:28:51;;;;;;;27.23;16.98;;;16.60;58.00;;;;;;4001022;29;20386;-63
2022/03/21 10:31:22;;;;;;;26.48;18.00;;;16.60;57.60;;;;;;4001688;29;20050;-63
2022/03/21 10:34:00;;;;;;;26.83;18.23;;;16.60;57.40;;;;;;4002195;29;20054;-64
2022/03/21 10:36:26;;;;;;;32.28;16.58;;;16.60;57.20;;;;;;4002092;29;20077;-64
2022/03/21 10:38:48;;;;;;;26.35;17.48;;;16.60;56.90;;;;;;3999879;29;20106;-64
2022/03/21 10:41:34;;;;;;;26.48;18.05;;;16.70;56.80;;;;;;4001194;29;20050;-64
2022/03/21 10:43:56;;;;;;;26.40;15.63;;;16.70;56.70;;;;;;4000871;29;20049;-64
2022/03/21 10:46:22;;;;;;;28.38;18.92;;;16.70;56.70;;;;;;4001435;29;20053;-64
2022/03/21 10:48:46;;;;;;;23.63;15.45;;;16.70;56.40;;;;;;4002002;29;20193;-64
2022/03/21 10:51:08;;;;;;;32.47;17.17;;;16.70;56.70;;;;;;4000804;29;20045;-64
2022/03/21 10:53:33;;;;;;;25.77;16.52;;;16.70;56.50;;;;;;3987191;29;20107;-65
2022/03/21 10:56:02;;;;;;;22.48;17.00;;;16.80;56.00;;;;;;4001240;29;20105;-64
2022/03/21 10:58:33;;;;;;;28.77;18.23;;;16.80;56.10;;;;;;4000656;29;20054;-64
2022/03/21 11:00:55;;;;;;;26.52;17.30;;;16.80;56.10;;;;;;4001121;29;20061;-64
2022/03/21 11:03:17;;;;;;;27.50;19.23;;;16.80;55.70;;;;;;4000637;29;20057;-65
2022/03/21 11:05:42;;;;;;;27.80;18.70;;;16.80;55.80;;;;;;4000984;29;20072;-67
2022/03/21 11:08:06;;;;;;;31.52;19.10;;;16.90;55.40;;;;;;4001460;29;20133;-67
2022/03/21 11:10:29;;;;;;;30.25;18.83;;;16.90;54.90;;;;;;4000466;29;20050;-66
2022/03/21 11:12:52;;;;;;;27.25;19.63;;;16.90;54.40;;;;;;3999883;29;20141;-63
2022/03/21 11:15:15;;;;;;;27.95;19.02;;;16.90;55.10;;;;;;4000607;29;20061;-63
2022/03/21 11:17:38;;;;;;;28.40;18.83;;;16.90;54.50;;;;;;4000192;29;20046;-64
2022/03/21 11:20:02;;;;;;;31.95;19.63;;;16.90;55.40;;;;;;4000780;29;20496;-64
2022/03/21 11:22:26;;;;;;;29.05;19.30;;;17.00;55.80;;;;;;4001145;29;20062;-64
2022/03/21 11:24:48;;;;;;;27.67;18.38;;;17.00;55.00;;;;;;4000145;29;20072;-64
2022/03/21 11:27:28;;;;;;;29.95;20.02;;;17.00;55.20;;;;;;4000798;29;20165;-66
2022/03/21 11:30:01;;;;;;;29.35;20.50;;;17.00;55.40;;;;;;4000663;29;20500;-63
2022/03/21 11:32:33;;;;;;;32.28;20.67;;;17.00;54.30;;;;;;3988400;29;20114;-64
2022/03/21 11:34:58;;;;;;;;;;;17.00;55.60;;;;;;4012943;29;20134;-65
2022/03/21 11:37:29;;;;;;;30.05;18.85;;;17.00;55.00;;;;;;3985310;29;20405;-67
2022/03/21 11:40:32;;;;;;;27.30;19.35;;;17.00;55.40;;;;;;3973430;29;20061;-66
2022/03/21 11:42:56;;;;;;;26.65;19.80;;;17.00;55.30;;;;;;4000085;29;20099;-66
2022/03/21 11:45:24;;;;;;;29.52;20.23;;;17.00;54.20;;;;;;3999867;29;20085;-65
2022/03/21 11:47:46;;;;;;;29.40;18.92;;;17.10;54.90;;;;;;3999881;29;20489;-63
2022/03/21 11:50:25;;;;;;;31.42;19.10;;;17.10;54.90;;;;;;4000633;29;20561;-63
2022/03/21 11:53:07;;;;;;;27.08;18.25;;;17.10;54.60;;;;;;4000612;29;20133;-64
2022/03/21 11:55:30;;;;;;;30.63;19.95;;;17.10;55.20;;;;;;4000464;29;20064;-64
2022/03/21 11:57:53;;;;;;;27.70;19.92;;;17.10;54.70;;;;;;3993934;29;20062;-63
2022/03/21 12:00:16;;;;;;;28.02;18.33;;;17.10;53.60;;;;;;3984991;29;20134;-63
2022/03/21 12:02:57;;;;;;;30.08;19.50;;;17.20;53.60;;;;;;4000744;29;20478;-63
2022/03/21 12:05:41;;;;;;;24.02;18.05;;;17.20;54.30;;;;;;4004432;29;20061;-64
2022/03/21 12:08:36;;;;;;;27.15;17.88;;;17.20;55.20;;;;;;4003725;29;20132;-63
2022/03/21 12:10:58;;;;;;;25.55;17.50;;;17.20;55.00;;;;;;4003292;29;20054;-63
2022/03/21 12:13:20;;;;;;;29.20;19.05;;;17.20;55.60;;;;;;4003323;29;20485;-64
2022/03/21 12:15:51;;;;;;;27.25;18.30;;;17.20;55.30;;;;;;4003469;29;20058;-64
2022/03/21 12:18:13;;;;;;;28.67;17.83;;;17.30;53.60;;;;;;4003541;29;20084;-64
2022/03/21 12:20:46;;;;;;;25.60;18.90;;;17.30;53.60;;;;;;4002826;29;20053;-64
2022/03/21 12:23:17;;;;;;;26.95;17.55;;;17.30;53.20;;;;;;3989631;29;20170;-63
2022/03/21 12:25:47;;;;;;;26.77;18.85;;;17.30;53.80;;;;;;4003213;29;20106;-64
2022/03/21 12:28:20;;;;;;;25.52;19.52;;;17.30;53.80;;;;;;4002891;29;20464;-64
2022/03/21 12:30:42;;;;;;;25.27;18.48;;;17.30;53.30;;;;;;4002888;29;20050;-64
2022/03/21 12:33:23;;;;;;;27.10;18.85;;;17.40;53.80;;;;;;4003380;29;20053;-64